Time;durP1;ratioP1;P1;durP2;ratioP2;P2;SDS_P1;SDS_P2;PMS_P1;PMS_P2;Temp;Humidity;BMP_temperature;BMP_pressure;BME280_temperature;BME280_humidity;BME280_pressure;Samples;Min_cycle;Max_cycle;Signal;HPM_P1;HPM_P2
2023/03/23 00:02:25;;;;;;;62.38;32.78;;;4.80;99.90;;;;;;5091635;28;20115;-79
2023/03/23 00:04:52;;;;;;;56.35;31.65;;;4.80;99.90;;;;;;5093106;28;20028;-77
2023/03/23 00:07:21;;;;;;;58.78;31.13;;;4.80;99.90;;;;;;5091538;28;20470;-77
2023/03/23 00:09:53;;;;;;;60.35;32.25;;;4.70;99.90;;;;;;5094032;28;20050;-78
2023/03/23 00:12:21;;;;;;;57.88;31.58;;;4.70;99.90;;;;;;5095297;28;20039;-79
2023/03/23 00:14:47;;;;;;;54.42;31.27;;;4.60;99.90;;;;;;5095121;28;20020;-77
2023/03/23 00:17:14;;;;;;;54.35;30.60;;;4.60;99.90;;;;;;5096332;28;20431;-78
2023/03/23 00:19:46;;;;;;;52.13;30.60;;;4.60;99.90;;;;;;5095205;28;20028;-77
2023/03/23 00:22:13;;;;;;;61.83;31.57;;;4.60;99.90;;;;;;5095051;28;20027;-77
2023/03/23 00:24:38;;;;;;;53.65;32.40;;;4.60;99.90;;;;;;5096185;28;20465;-78
2023/03/23 00:27:04;;;;;;;59.13;29.20;;;4.60;99.90;;;;;;5096192;28;20020;-79
2023/03/23 00:29:30;;;;;;;51.42;28.67;;;4.60;99.90;;;;;;5096167;28;20089;-77
2023/03/23 00:31:56;;;;;;;52.08;29.38;;;4.50;99.90;;;;;;5095992;28;20047;-79
2023/03/23 00:34:24;;;;;;;50.63;30.50;;;4.50;99.90;;;;;;5094752;28;20085;-77
2023/03/23 00:36:53;;;;;;;57.92;33.00;;;4.50;99.90;;;;;;5095898;28;20050;-79
2023/03/23 00:39:19;;;;;;;52.50;32.83;;;4.40;99.90;;;;;;5094489;28;20134;-79
2023/03/23 00:41:46;;;;;;;55.55;30.13;;;4.50;99.90;;;;;;5094617;28;20051;-77
2023/03/23 00:44:16;;;;;;;51.67;31.67;;;4.40;99.90;;;;;;5095709;28;20020;-79
2023/03/23 00:46:44;;;;;;;56.13;31.80;;;4.40;99.90;;;;;;5094442;28;20043;-77
2023/03/23 00:49:14;;;;;;;53.70;31.60;;;4.30;99.90;;;;;;5094138;28;20070;-80
2023/03/23 00:51:41;;;;;;;50.60;30.40;;;4.30;99.90;;;;;;5094145;28;20020;-78
2023/03/23 00:54:08;;;;;;;57.03;32.30;;;4.40;99.90;;;;;;5094325;28;20020;-80
2023/03/23 00:56:34;;;;;;;57.20;32.13;;;4.30;99.90;;;;;;5095711;28;20074;-80
2023/03/23 00:59:00;;;;;;;54.42;30.50;;;4.30;99.90;;;;;;5114934;28;20376;-78
2023/03/23 01:01:26;;;;;;;51.75;29.90;;;4.30;99.90;;;;;;5114715;28;20024;-80
2023/03/23 01:04:00;;;;;;;57.38;32.03;;;4.20;99.90;;;;;;5114434;28;20031;-80
2023/03/23 01:06:27;;;;;;;61.63;34.53;;;4.20;99.90;;;;;;5115032;28;20381;-81
2023/03/23 01:08:53;;;;;;;62.03;35.03;;;4.20;99.90;;;;;;5114720;28;20106;-80
2023/03/23 01:11:19;;;;;;;53.20;31.15;;;4.20;99.90;;;;;;5114365;28;20067;-77
2023/03/23 01:13:45;;;;;;;49.83;28.10;;;4.20;99.90;;;;;;5115635;28;20023;-81
2023/03/23 01:16:12;;;;;;;50.65;29.90;;;4.20;99.90;;;;;;5115543;28;20490;-77
2023/03/23 01:18:38;;;;;;;49.65;29.60;;;4.10;99.90;;;;;;5115313;28;20103;-80
2023/03/23 01:21:10;;;;;;;53.53;30.42;;;4.10;99.90;;;;;;5114879;28;20023;-79
2023/03/23 01:23:37;;;;;;;51.07;29.43;;;4.10;99.90;;;;;;5114308;28;20035;-80
2023/03/23 01:26:08;;;;;;;45.92;28.35;;;4.10;99.90;;;;;;5114409;28;20015;-78
2023/03/23 01:28:35;;;;;;;46.00;27.52;;;4.00;99.90;;;;;;5114101;28;20015;-78
2023/03/23 01:31:08;;;;;;;52.20;28.73;;;4.00;99.90;;;;;;5113980;28;20031;-79
2023/03/23 01:33:34;;;;;;;50.50;27.45;;;4.00;99.90;;;;;;5114005;28;20028;-79
2023/03/23 01:36:10;;;;;;;49.53;27.98;;;3.90;99.90;;;;;;5114000;28;20045;-76
2023/03/23 01:38:35;;;;;;;50.03;29.50;;;4.00;99.90;;;;;;5104764;28;20389;-76
2023/03/23 01:41:02;;;;;;;46.22;28.13;;;4.00;99.90;;;;;;5095086;28;20020;-79
2023/03/23 01:43:28;;;;;;;51.65;29.10;;;3.90;99.90;;;;;;5093314;28;20025;-79
2023/03/23 01:45:54;;;;;;;44.67;27.63;;;3.90;99.90;;;;;;5093322;28;20017;-76
2023/03/23 01:48:46;;;;;;;43.70;26.60;;;3.90;99.90;;;;;;5094761;28;20052;-76
2023/03/23 01:51:16;;;;;;;46.53;27.70;;;3.90;99.90;;;;;;5092360;28;20501;-76
2023/03/23 01:53:50;;;;;;;46.00;26.65;;;3.90;99.90;;;;;;5093237;28;20036;-77
2023/03/23 01:56:20;;;;;;;47.78;27.10;;;3.90;99.90;;;;;;5094487;28;20366;-79
2023/03/23 01:58:46;;;;;;;42.47;25.67;;;3.90;99.90;;;;;;5094320;28;20034;-78
2023/03/23 02:01:14;;;;;;;42.70;25.58;;;3.90;99.90;;;;;;5094332;28;20091;-77
2023/03/23 02:03:43;;;;;;;48.90;25.50;;;3.90;99.90;;;;;;5092969;28;20430;-78
2023/03/23 02:06:09;;;;;;;47.47;27.83;;;3.90;99.90;;;;;;5092897;28;20020;-78
2023/03/23 02:08:36;;;;;;;49.83;27.38;;;3.80;99.90;;;;;;5094314;28;20042;-78
2023/03/23 02:11:08;;;;;;;44.72;25.70;;;3.80;99.90;;;;;;5092845;28;20060;-78
2023/03/23 02:13:34;;;;;;;41.58;25.70;;;3.80;99.90;;;;;;5092942;28;20370;-78
2023/03/23 02:16:26;;;;;;;40.78;23.73;;;3.80;99.90;;;;;;5094058;28;20042;-78
2023/03/23 02:19:16;;;;;;;45.10;24.40;;;3.80;99.90;;;;;;5098011;28;20529;-79
2023/03/23 02:22:12;;;;;;;42.03;24.88;;;3.80;99.90;;;;;;5112984;28;20023;-81
2023/03/23 02:24:43;;;;;;;39.70;24.38;;;3.80;99.90;;;;;;5113015;28;20114;-80
2023/03/23 02:27:27;;;;;;;42.72;25.70;;;3.90;99.90;;;;;;5113001;28;20106;-80
2023/03/23 02:30:04;;;;;;;46.55;25.67;;;3.90;99.90;;;;;;5112852;28;20088;-80
2023/03/23 02:32:29;;;;;;;39.30;24.30;;;3.90;99.90;;;;;;5112513;28;20024;-80
2023/03/23 02:35:12;;;;;;;44.03;24.92;;;4.00;99.90;;;;;;5112669;28;20511;-78
2023/03/23 02:37:57;;;;;;;43.60;25.15;;;4.00;99.90;;;;;;5114133;28;20370;-77
2023/03/23 02:40:35;;;;;;;41.83;24.13;;;3.90;99.90;;;;;;5094589;28;20020;-78
2023/03/23 02:43:06;;;;;;;42.05;24.15;;;4.00;99.90;;;;;;5092300;28;20073;-80
2023/03/23 02:45:34;;;;;;;45.25;23.88;;;4.00;99.90;;;;;;5092291;28;20024;-80
2023/03/23 02:48:02;;;;;;;41.80;24.98;;;4.00;99.90;;;;;;5091855;28;20048;-79
2023/03/23 02:50:29;;;;;;;38.00;23.60;;;4.00;99.90;;;;;;5092596;28;20036;-79
2023/03/23 02:52:56;;;;;;;41.72;23.17;;;4.00;99.90;;;;;;5092529;28;20020;-79
2023/03/23 02:55:25;;;;;;;38.83;22.98;;;4.00;99.90;;;;;;5092414;28;20590;-79
2023/03/23 02:57:53;;;;;;;36.55;22.77;;;4.00;99.90;;;;;;5093421;28;20020;-79
2023/03/23 03:00:19;;;;;;;36.47;22.17;;;4.00;99.90;;;;;;5092041;28;20012;-78
2023/03/23 03:02:52;;;;;;;38.97;23.55;;;4.00;99.90;;;;;;5092064;28;20023;-78
2023/03/23 03:05:42;;;;;;;39.75;24.02;;;4.10;99.90;;;;;;5093390;28;20020;-78
2023/03/23 03:08:46;;;;;;;38.90;23.98;;;4.00;99.90;;;;;;5092074;28;20018;-79
2023/03/23 03:11:15;;;;;;;35.85;21.80;;;4.00;99.90;;;;;;5091348;28;20139;-78
2023/03/23 03:14:05;;;;;;;42.13;24.77;;;4.00;99.90;;;;;;5092321;28;20024;-78
2023/03/23 03:17:06;;;;;;;39.28;23.10;;;4.00;99.90;;;;;;5092033;28;20028;-78
2023/03/23 03:19:35;;;;;;;41.40;24.15;;;4.00;99.90;;;;;;5091774;28;20111;-78
2023/03/23 03:22:02;;;;;;;41.40;25.25;;;3.90;99.90;;;;;;5092203;28;20023;-78
2023/03/23 03:24:29;;;;;;;38.03;23.23;;;4.00;99.90;;;;;;5093188;28;20021;-79
2023/03/23 03:26:58;;;;;;;40.65;23.83;;;4.00;99.90;;;;;;5091918;28;20024;-80
2023/03/23 03:29:29;;;;;;;41.03;24.00;;;3.90;99.90;;;;;;5091757;28;20012;-79
2023/03/23 03:31:56;;;;;;;43.63;25.45;;;3.90;99.90;;;;;;5091810;28;20024;-77
2023/03/23 03:34:23;;;;;;;44.63;25.15;;;3.90;99.90;;;;;;5091857;28;20039;-79
2023/03/23 03:36:52;;;;;;;41.92;24.05;;;3.90;99.90;;;;;;5093603;28;20377;-80
2023/03/23 03:39:20;;;;;;;38.40;23.00;;;3.90;99.90;;;;;;5092885;28;20047;-80
2023/03/23 03:41:46;;;;;;;39.97;23.52;;;3.90;99.90;;;;;;5092959;28;20051;-80
2023/03/23 03:44:12;;;;;;;38.22;24.00;;;3.90;99.90;;;;;;5093219;28;20047;-80
2023/03/23 03:46:38;;;;;;;37.58;22.73;;;3.90;99.90;;;;;;5095715;28;20116;-77
2023/03/23 03:49:06;;;;;;;38.15;21.98;;;3.90;99.90;;;;;;5097225;28;20529;-76
2023/03/23 03:51:34;;;;;;;40.35;24.55;;;3.90;99.90;;;;;;5096836;28;20028;-77
2023/03/23 03:54:00;;;;;;;35.88;22.08;;;3.90;99.90;;;;;;5096719;28;20028;-77
2023/03/23 03:56:26;;;;;;;38.28;23.17;;;3.90;99.90;;;;;;5096731;28;20366;-80
2023/03/23 03:58:52;;;;;;;37.40;22.10;;;3.90;99.90;;;;;;5096525;28;20130;-78
2023/03/23 04:01:23;;;;;;;35.40;23.23;;;3.90;99.90;;;;;;5110697;28;20377;-80
2023/03/23 04:03:50;;;;;;;39.85;24.30;;;3.90;99.90;;;;;;5097840;28;20491;-77
2023/03/23 04:06:16;;;;;;;36.13;23.02;;;3.90;99.90;;;;;;5096560;28;20032;-77
2023/03/23 04:08:44;;;;;;;39.72;24.92;;;3.90;99.90;;;;;;5095794;28;20013;-79
2023/03/23 04:11:12;;;;;;;40.30;24.13;;;3.90;99.90;;;;;;5095052;28;20032;-79
2023/03/23 04:13:38;;;;;;;41.45;25.38;;;3.90;99.90;;;;;;5096179;28;20021;-79
2023/03/23 04:16:05;;;;;;;41.25;26.23;;;3.80;99.90;;;;;;5095394;28;20385;-77
2023/03/23 04:18:32;;;;;;;39.88;25.23;;;3.80;99.90;;;;;;5096276;28;20020;-77
2023/03/23 04:20:59;;;;;;;47.28;24.95;;;3.80;99.90;;;;;;5095165;28;20381;-80
2023/03/23 04:23:26;;;;;;;39.03;22.55;;;3.80;99.90;;;;;;5094803;28;20017;-79
2023/03/23 04:25:56;;;;;;;42.53;26.20;;;3.80;99.90;;;;;;5094794;28;20287;-77
2023/03/23 04:28:23;;;;;;;44.28;26.63;;;3.80;99.90;;;;;;5094743;28;20404;-79
2023/03/23 04:30:52;;;;;;;46.83;25.60;;;3.80;99.90;;;;;;5095148;28;20032;-80
2023/03/23 04:33:29;;;;;;;34.83;22.85;;;3.80;99.90;;;;;;5094707;28;20016;-78
2023/03/23 04:36:00;;;;;;;45.78;26.90;;;3.80;99.90;;;;;;5094783;28;20114;-78
2023/03/23 04:38:27;;;;;;;50.33;26.92;;;3.70;99.90;;;;;;5096032;28;20060;-76
2023/03/23 04:40:54;;;;;;;46.33;25.85;;;3.70;99.90;;;;;;5095867;28;20052;-78
2023/03/23 04:43:22;;;;;;;44.88;25.25;;;3.70;99.90;;;;;;5095846;28;20074;-78
2023/03/23 04:45:55;;;;;;;40.15;23.55;;;3.70;99.90;;;;;;5094591;28;20024;-76
2023/03/23 04:48:25;;;;;;;44.80;26.20;;;3.80;99.90;;;;;;5095566;28;20064;-77
2023/03/23 04:50:52;;;;;;;42.90;24.70;;;3.70;99.90;;;;;;5094392;28;20040;-78
2023/03/23 04:53:17;;;;;;;51.70;28.63;;;3.80;99.90;;;;;;5095311;28;20138;-78
2023/03/23 04:55:44;;;;;;;53.78;29.33;;;3.80;99.90;;;;;;5093699;28;20489;-76
2023/03/23 04:58:12;;;;;;;34.92;20.92;;;3.70;99.90;;;;;;5095229;28;20032;-77
2023/03/23 05:00:38;;;;;;;41.17;23.40;;;3.70;99.90;;;;;;5094583;28;20020;-76
2023/03/23 05:03:03;;;;;;;39.38;22.48;;;3.70;99.90;;;;;;5095368;28;20016;-77
2023/03/23 05:05:30;;;;;;;38.83;21.88;;;3.70;99.90;;;;;;5094060;28;20495;-77
2023/03/23 05:07:56;;;;;;;39.03;21.45;;;3.80;99.90;;;;;;5094628;28;20447;-78
2023/03/23 05:10:22;;;;;;;42.42;23.20;;;3.80;99.90;;;;;;5090422;28;20063;-76
2023/03/23 05:12:48;;;;;;;39.53;24.05;;;3.80;99.90;;;;;;5092519;28;20627;-77
2023/03/23 05:15:16;;;;;;;46.83;26.17;;;3.80;99.90;;;;;;5091445;28;20432;-77
2023/03/23 05:17:43;;;;;;;43.35;25.10;;;3.80;99.90;;;;;;5093174;28;20016;-77
2023/03/23 05:20:11;;;;;;;44.00;27.25;;;3.80;99.90;;;;;;5091374;28;20017;-77
2023/03/23 05:22:38;;;;;;;41.40;24.83;;;3.80;99.90;;;;;;5091514;28;20046;-76
2023/03/23 05:25:10;;;;;;;48.83;25.98;;;3.90;99.90;;;;;;5089664;28;20013;-77
2023/03/23 05:27:36;;;;;;;48.25;28.17;;;3.90;99.90;;;;;;5090472;28;20016;-76
2023/03/23 05:30:03;;;;;;;44.15;27.52;;;3.90;99.90;;;;;;5091742;28;20036;-76
2023/03/23 05:32:30;;;;;;;46.80;27.30;;;4.00;99.90;;;;;;5091023;28;20020;-77
2023/03/23 05:34:57;;;;;;;47.33;28.30;;;4.10;99.90;;;;;;5092992;28;20012;-76
2023/03/23 05:37:24;;;;;;;46.25;27.45;;;4.20;99.90;;;;;;5092140;28;20472;-77
2023/03/23 05:39:53;;;;;;;52.92;29.70;;;4.30;99.90;;;;;;5094353;28;20111;-76
2023/03/23 05:42:20;;;;;;;50.90;31.83;;;4.40;99.90;;;;;;5093496;28;20176;-77
2023/03/23 05:44:46;;;;;;;57.83;34.35;;;4.60;99.90;;;;;;5093546;28;20107;-76
2023/03/23 05:47:13;;;;;;;70.88;39.67;;;4.70;99.90;;;;;;5094640;28;20032;-76
2023/03/23 05:49:38;;;;;;;62.17;35.05;;;4.80;99.90;;;;;;5093409;28;20032;-77
2023/03/23 05:52:04;;;;;;;55.10;32.40;;;4.90;99.90;;;;;;5094709;28;20141;-77
2023/03/23 05:54:30;;;;;;;48.60;29.80;;;5.10;99.90;;;;;;5093414;28;20016;-76
2023/03/23 05:56:55;;;;;;;53.38;30.60;;;5.20;99.90;;;;;;5093295;28;20043;-76
2023/03/23 05:59:21;;;;;;;50.03;27.90;;;5.30;99.90;;;;;;5094450;28;20111;-77
2023/03/23 06:01:47;;;;;;;36.60;23.38;;;5.40;99.90;;;;;;5094332;28;20028;-77
2023/03/23 06:04:13;;;;;;;42.78;25.75;;;5.60;99.90;;;;;;5092386;28;20023;-76
2023/03/23 06:06:40;;;;;;;53.30;31.58;;;5.80;99.90;;;;;;5094523;28;20020;-77
2023/03/23 06:09:07;;;;;;;62.05;35.20;;;5.90;99.90;;;;;;5092942;28;20051;-77
2023/03/23 06:11:33;;;;;;;48.60;32.10;;;6.00;99.90;;;;;;5094373;28;20036;-77
2023/03/23 06:13:58;;;;;;;61.70;36.35;;;6.10;99.90;;;;;;5093151;28;20020;-77
2023/03/23 06:16:24;;;;;;;72.30;39.50;;;6.20;99.90;;;;;;5093089;28;20024;-77
2023/03/23 06:18:50;;;;;;;91.57;49.88;;;6.30;99.90;;;;;;5092983;28;20020;-76
2023/03/23 06:21:18;;;;;;;97.90;53.28;;;6.40;99.90;;;;;;5105992;28;20119;-76
2023/03/23 06:23:44;;;;;;;103.20;78.20;;;6.50;99.90;;;;;;5112138;28;20481;-76
2023/03/23 06:26:14;;;;;;;111.18;86.55;;;6.70;99.90;;;;;;5092801;28;20070;-77
2023/03/23 06:28:40;;;;;;;75.35;55.55;;;6.90;99.90;;;;;;5092770;28;20024;-76
2023/03/23 06:31:06;;;;;;;44.33;31.40;;;7.00;99.90;;;;;;5094033;28;20040;-76
2023/03/23 06:33:37;;;;;;;41.60;25.80;;;7.20;99.90;;;;;;5092807;28;20020;-77
2023/03/23 06:36:04;;;;;;;39.22;24.10;;;7.40;99.90;;;;;;5094148;28;20448;-77
2023/03/23 06:38:30;;;;;;;36.90;22.95;;;7.60;99.90;;;;;;5094057;28;20489;-77
2023/03/23 06:40:56;;;;;;;31.85;21.70;;;7.70;99.90;;;;;;5092191;28;20020;-77
2023/03/23 06:43:23;;;;;;;30.33;20.08;;;7.90;99.90;;;;;;5092500;28;20377;-77
2023/03/23 06:45:50;;;;;;;29.60;18.63;;;8.10;99.90;;;;;;5092539;28;20048;-76
2023/03/23 06:48:16;;;;;;;30.85;18.83;;;8.30;99.90;;;;;;5092192;28;20097;-77
2023/03/23 06:50:46;;;;;;;28.15;19.85;;;8.50;99.90;;;;;;5093632;28;20050;-76
2023/03/23 06:53:12;;;;;;;29.27;18.50;;;8.70;99.90;;;;;;5093629;28;20032;-77
2023/03/23 06:55:38;;;;;;;25.52;18.08;;;8.80;99.90;;;;;;5092422;28;20028;-77
2023/03/23 06:58:05;;;;;;;30.33;18.35;;;9.00;99.90;;;;;;5093713;28;20023;-77
2023/03/23 07:00:32;;;;;;;28.75;18.73;;;9.10;99.90;;;;;;5092472;28;20020;-77
2023/03/23 07:02:58;;;;;;;27.90;18.30;;;9.20;99.90;;;;;;5093659;28;20015;-77
2023/03/23 07:05:24;;;;;;;28.10;17.65;;;9.30;99.90;;;;;;5093742;28;20103;-78
2023/03/23 07:07:49;;;;;;;29.40;17.92;;;9.40;99.90;;;;;;5093636;28;20046;-78
2023/03/23 07:10:15;;;;;;;23.45;15.30;;;9.50;99.90;;;;;;5093554;28;20032;-77
2023/03/23 07:12:41;;;;;;;25.45;16.45;;;9.60;99.90;;;;;;5093512;28;20424;-77
2023/03/23 07:15:10;;;;;;;26.15;16.00;;;9.70;99.90;;;;;;5092239;28;20024;-77
2023/03/23 07:17:39;;;;;;;23.40;16.00;;;9.80;99.90;;;;;;5092283;28;20082;-77
2023/03/23 07:20:06;;;;;;;24.08;15.68;;;9.90;99.90;;;;;;5095426;28;20370;-77
2023/03/23 07:22:32;;;;;;;23.85;15.38;;;10.00;99.90;;;;;;5097396;28;20020;-77
2023/03/23 07:24:58;;;;;;;22.73;15.45;;;10.10;99.90;;;;;;5096399;28;20024;-77
2023/03/23 07:27:24;;;;;;;21.70;14.32;;;10.30;99.90;;;;;;5097469;28;20031;-77
2023/03/23 07:29:50;;;;;;;21.05;14.75;;;10.40;99.90;;;;;;5097563;28;20028;-78
2023/03/23 07:32:16;;;;;;;22.55;15.15;;;10.50;99.90;;;;;;5096349;28;20017;-77
2023/03/23 07:34:42;;;;;;;22.20;15.88;;;10.60;99.90;;;;;;5097586;28;20020;-77
2023/03/23 07:37:08;;;;;;;18.70;13.68;;;10.70;99.90;;;;;;5097492;28;20055;-77
2023/03/23 07:39:34;;;;;;;20.10;13.88;;;10.70;99.90;;;;;;5097382;28;20420;-77
2023/03/23 07:42:00;;;;;;;21.88;14.02;;;10.80;99.90;;;;;;5107855;28;20481;-78
2023/03/23 07:44:26;;;;;;;21.73;13.80;;;10.90;99.90;;;;;;5117724;28;20024;-77
2023/03/23 07:46:52;;;;;;;17.75;13.20;;;10.90;99.90;;;;;;5117434;28;20477;-77
2023/03/23 07:49:18;;;;;;;20.17;13.52;;;10.90;99.90;;;;;;5116329;28;20019;-77
2023/03/23 07:51:45;;;;;;;18.45;13.52;;;10.90;99.90;;;;;;5117570;28;20028;-77
2023/03/23 07:54:11;;;;;;;23.88;13.93;;;11.00;99.90;;;;;;5117785;28;20412;-77
2023/03/23 07:56:39;;;;;;;21.77;13.27;;;11.10;99.90;;;;;;5117371;28;20026;-77
2023/03/23 07:59:05;;;;;;;18.70;13.75;;;11.10;99.90;;;;;;5117387;28;20051;-77
2023/03/23 08:01:31;;;;;;;21.63;14.18;;;11.10;99.90;;;;;;5084185;27;20021;-78
2023/03/23 08:03:57;;;;;;;24.33;13.63;;;11.10;99.90;;;;;;5083328;28;20088;-78
2023/03/23 08:06:27;;;;;;;20.52;13.43;;;11.10;99.90;;;;;;5095675;28;20427;-78
2023/03/23 08:08:53;;;;;;;18.08;13.45;;;11.20;99.90;;;;;;5094991;28;20077;-78
2023/03/23 08:11:20;;;;;;;17.00;12.00;;;11.30;99.90;;;;;;5095600;28;20036;-78
2023/03/23 08:13:46;;;;;;;19.58;12.55;;;11.40;99.90;;;;;;5093368;28;20497;-79
2023/03/23 08:16:13;;;;;;;18.13;12.40;;;11.40;99.90;;;;;;5094309;28;20024;-78
2023/03/23 08:18:39;;;;;;;18.50;12.60;;;11.50;99.90;;;;;;5093605;28;20032;-78
2023/03/23 08:21:08;;;;;;;16.88;12.32;;;11.60;99.90;;;;;;5095613;28;20058;-78
2023/03/23 08:23:34;;;;;;;20.15;12.25;;;11.70;99.70;;;;;;5093758;28;20035;-78
2023/03/23 08:26:00;;;;;;;14.18;11.05;;;11.70;98.30;;;;;;5095313;28;20012;-78
2023/03/23 08:28:26;;;;;;;15.93;11.35;;;11.80;97.20;;;;;;5094629;28;20097;-78
2023/03/23 08:30:52;;;;;;;15.20;11.63;;;11.90;97.60;;;;;;5094898;28;20033;-78
2023/03/23 08:33:18;;;;;;;17.98;12.15;;;12.00;95.70;;;;;;5094897;28;20032;-78
2023/03/23 08:35:44;;;;;;;16.90;11.70;;;12.10;92.40;;;;;;5094855;28;20020;-78
2023/03/23 08:38:11;;;;;;;18.38;11.80;;;12.20;90.90;;;;;;5094903;28;20050;-78
2023/03/23 08:40:38;;;;;;;16.40;11.15;;;12.30;88.70;;;;;;5093665;28;20016;-78
2023/03/23 08:43:04;;;;;;;14.40;9.68;;;12.40;88.20;;;;;;5092572;28;20567;-78
2023/03/23 08:45:30;;;;;;;11.90;9.48;;;12.50;85.60;;;;;;5093810;28;20077;-78
2023/03/23 08:47:56;;;;;;;15.18;10.18;;;12.60;85.90;;;;;;5093106;28;20142;-78
2023/03/23 08:50:27;;;;;;;13.55;9.65;;;12.70;86.10;;;;;;5094645;28;20055;-78
2023/03/23 08:52:54;;;;;;;12.32;9.40;;;12.80;84.00;;;;;;5092612;28;20033;-78
2023/03/23 08:55:21;;;;;;;11.82;8.85;;;12.80;83.10;;;;;;5095727;28;20045;-78
2023/03/23 08:57:47;;;;;;;12.50;8.32;;;13.00;83.10;;;;;;5113116;28;20057;-78
2023/03/23 09:00:17;;;;;;;11.98;8.60;;;13.10;82.50;;;;;;5094013;28;20385;-78
2023/03/23 09:02:47;;;;;;;11.10;8.90;;;13.20;81.50;;;;;;5093841;28;20028;-78
2023/03/23 09:05:14;;;;;;;15.80;8.80;;;13.40;81.70;;;;;;5093752;28;20020;-78
2023/03/23 09:07:43;;;;;;;13.63;8.35;;;13.50;79.80;;;;;;5095096;28;20101;-79
2023/03/23 09:10:10;;;;;;;10.18;7.82;;;13.60;79.20;;;;;;5073494;28;20166;-78
2023/03/23 09:12:36;;;;;;;11.93;7.30;;;13.70;77.50;;;;;;5073449;28;20020;-78
2023/03/23 09:15:08;;;;;;;11.73;7.18;;;13.80;76.50;;;;;;5092853;28;20128;-78
2023/03/23 09:17:39;;;;;;;10.52;7.35;;;14.00;74.10;;;;;;5095194;28;20058;-78
2023/03/23 09:20:12;;;;;;;11.45;7.50;;;14.20;75.80;;;;;;5092580;28;20040;-79
2023/03/23 09:22:39;;;;;;;12.68;7.68;;;14.30;76.40;;;;;;5092084;28;20524;-79
2023/03/23 09:25:07;;;;;;;10.50;6.28;;;14.50;72.00;;;;;;5093562;28;20024;-78
2023/03/23 09:27:33;;;;;;;9.10;6.65;;;14.50;68.50;;;;;;5092302;28;20020;-78
2023/03/23 09:30:00;;;;;;;9.60;6.25;;;14.70;68.00;;;;;;5092467;28;20051;-78
2023/03/23 09:32:26;;;;;;;7.95;6.25;;;15.00;69.50;;;;;;5093485;28;20092;-78
2023/03/23 09:34:54;;;;;;;7.35;5.60;;;15.30;68.40;;;;;;5093503;28;20114;-78
2023/03/23 09:37:20;;;;;;;10.98;6.45;;;15.70;65.90;;;;;;5094703;28;20095;-78
2023/03/23 09:39:46;;;;;;;12.35;6.32;;;15.90;64.90;;;;;;5093507;28;20462;-78
2023/03/23 09:42:43;;;;;;;9.07;6.43;;;16.10;63.30;;;;;;5093044;28;20046;-78
2023/03/23 09:45:33;;;;;;;10.10;5.75;;;16.20;61.10;;;;;;5093134;28;20093;-78
2023/03/23 09:48:01;;;;;;;10.88;5.82;;;16.40;60.40;;;;;;5094628;28;20062;-78
2023/03/23 09:50:32;;;;;;;7.75;5.28;;;16.60;59.00;;;;;;5093134;28;20391;-80
2023/03/23 09:53:17;;;;;;;9.73;5.70;;;16.80;57.50;;;;;;5093786;28;20513;-79
2023/03/23 09:55:45;;;;;;;9.65;5.85;;;17.00;57.90;;;;;;5094594;28;20359;-79
2023/03/23 09:58:27;;;;;;;7.35;4.95;;;17.20;56.70;;;;;;5093141;28;20021;-79
2023/03/23 10:01:04;;;;;;;8.07;4.95;;;17.30;55.20;;;;;;5094553;28;20028;-79
2023/03/23 10:03:41;;;;;;;7.35;4.97;;;17.40;54.80;;;;;;5092989;28;20101;-79
2023/03/23 10:06:12;;;;;;;5.43;4.55;;;17.40;55.70;;;;;;5093453;28;20031;-79
2023/03/23 10:08:50;;;;;;;6.35;4.18;;;17.50;56.20;;;;;;5094267;28;20020;-79
2023/03/23 10:11:33;;;;;;;9.07;4.80;;;17.40;54.80;;;;;;5092922;28;20185;-79
2023/03/23 10:14:05;;;;;;;8.05;5.18;;;17.40;54.50;;;;;;5094437;28;20020;-79
2023/03/23 10:16:37;;;;;;;8.50;4.65;;;17.30;53.60;;;;;;5094235;28;20035;-79
2023/03/23 10:19:12;;;;;;;;;;;17.40;54.00;;;;;;5094636;28;20523;-79
2023/03/23 10:21:43;;;;;;;8.85;4.68;;;17.40;53.60;;;;;;5092749;28;19999;-79
2023/03/23 10:24:13;;;;;;;10.35;5.00;;;17.50;54.10;;;;;;5092559;28;20091;-79
2023/03/23 10:26:38;;;;;;;10.15;5.00;;;17.50;53.90;;;;;;5093987;28;20028;-79
2023/03/23 10:29:22;;;;;;;8.65;4.53;;;17.60;53.10;;;;;;5092769;28;20389;-79
2023/03/23 10:32:01;;;;;;;13.25;4.93;;;17.80;52.90;;;;;;5094106;28;20043;-79
2023/03/23 10:34:54;;;;;;;15.27;5.22;;;18.10;52.10;;;;;;5092491;28;20565;-79
2023/03/23 10:37:23;;;;;;;8.88;4.80;;;18.20;52.60;;;;;;5092433;28;20019;-79
2023/03/23 10:39:54;;;;;;;11.43;4.15;;;18.30;51.90;;;;;;5093802;28;20024;-79
2023/03/23 10:42:31;;;;;;;19.10;5.45;;;18.40;51.70;;;;;;5093684;28;20035;-79
2023/03/23 10:45:18;;;;;;;15.38;5.35;;;18.30;51.40;;;;;;5092310;28;20043;-79
2023/03/23 10:47:49;;;;;;;9.52;4.32;;;18.20;50.50;;;;;;5092170;28;20190;-79
2023/03/23 10:50:17;;;;;;;9.15;5.03;;;18.00;50.40;;;;;;5093615;28;20481;-79
2023/03/23 10:52:44;;;;;;;9.68;4.70;;;17.90;50.80;;;;;;5092081;28;20024;-79
2023/03/23 10:55:22;;;;;;;5.68;4.55;;;18.00;51.40;;;;;;5092597;28;20490;-79
2023/03/23 10:58:09;;;;;;;9.35;5.00;;;18.10;51.20;;;;;;5092293;28;20397;-79
2023/03/23 11:00:44;;;;;;;10.80;4.45;;;18.30;51.30;;;;;;5094010;28;20642;-79
2023/03/23 11:03:16;;;;;;;13.48;5.30;;;18.50;51.30;;;;;;5092442;28;20460;-79
2023/03/23 11:06:04;;;;;;;15.95;5.78;;;18.50;50.00;;;;;;5093532;28;20020;-79
2023/03/23 11:08:34;;;;;;;10.48;4.43;;;18.80;50.80;;;;;;5093239;28;20028;-79
2023/03/23 11:11:24;;;;;;;9.45;5.07;;;18.90;50.60;;;;;;5092140;28;20032;-79
2023/03/23 11:14:00;;;;;;;6.13;3.55;;;18.60;49.90;;;;;;5092302;28;20067;-79
2023/03/23 11:16:32;;;;;;;16.10;4.40;;;18.30;50.20;;;;;;5092378;28;20058;-79
2023/03/23 11:18:59;;;;;;;16.40;5.25;;;18.10;49.90;;;;;;5093450;28;20541;-79
2023/03/23 11:21:27;;;;;;;12.57;4.13;;;17.70;49.50;;;;;;5093264;28;20031;-79
2023/03/23 11:23:57;;;;;;;5.57;3.30;;;17.50;49.80;;;;;;5091981;28;20024;-79
2023/03/23 11:26:32;;;;;;;7.68;3.60;;;17.30;49.50;;;;;;5092423;28;20089;-79
2023/03/23 11:29:10;;;;;;;4.10;3.00;;;17.20;49.50;;;;;;5092117;28;20073;-79
2023/03/23 11:31:42;;;;;;;8.38;3.10;;;17.00;49.70;;;;;;5092077;28;20370;-79
2023/03/23 11:34:18;;;;;;;4.45;2.35;;;16.90;50.40;;;;;;5093700;28;20024;-79
2023/03/23 11:36:58;;;;;;;6.20;2.20;;;16.80;50.80;;;;;;5092034;28;20020;-79
2023/03/23 11:39:28;;;;;;;7.15;2.28;;;16.70;51.60;;;;;;5093255;28;20022;-79
2023/03/23 11:41:57;;;;;;;3.08;1.95;;;16.70;52.10;;;;;;5092185;28;20028;-79
2023/03/23 11:44:31;;;;;;;2.97;2.08;;;16.60;52.00;;;;;;5093157;28;20016;-79
2023/03/23 11:47:31;;;;;;;5.20;2.55;;;16.60;52.80;;;;;;5091895;28;20020;-79
2023/03/23 11:50:03;;;;;;;4.95;2.63;;;16.60;52.80;;;;;;5091764;28;20028;-79
2023/03/23 11:52:50;;;;;;;4.55;2.55;;;16.50;52.90;;;;;;5092091;28;20016;-79
2023/03/23 11:55:28;;;;;;;4.25;3.00;;;16.50;53.40;;;;;;5093177;28;20028;-79
2023/03/23 11:57:59;;;;;;;4.88;2.47;;;16.50;53.30;;;;;;5091842;28;20066;-79
2023/03/23 12:00:25;;;;;;;3.63;2.90;;;16.40;53.50;;;;;;5091875;28;20107;-79
2023/03/23 12:03:25;;;;;;;4.47;2.22;;;16.40;53.60;;;;;;5109288;28;20563;-78
2023/03/23 12:06:06;;;;;;;4.43;2.67;;;16.30;53.60;;;;;;5113485;28;20028;-79
2023/03/23 12:08:59;;;;;;;4.03;2.47;;;16.30;53.80;;;;;;5117418;28;20387;-79
2023/03/23 12:11:51;;;;;;;5.22;2.85;;;16.30;54.20;;;;;;5115968;28;20492;-79
2023/03/23 12:14:33;;;;;;;4.55;3.28;;;16.20;55.00;;;;;;5115943;28;20019;-79
2023/03/23 12:17:05;;;;;;;6.70;2.63;;;16.20;54.20;;;;;;5117301;28;20030;-79
2023/03/23 12:19:57;;;;;;;4.20;2.60;;;16.20;54.10;;;;;;5115821;28;20020;-79
2023/03/23 12:22:58;;;;;;;4.67;2.63;;;16.10;54.60;;;;;;5115652;28;20024;-79
2023/03/23 12:25:30;;;;;;;9.35;2.92;;;16.10;54.30;;;;;;5115760;28;20028;-79
2023/03/23 12:28:23;;;;;;;7.07;3.07;;;16.20;54.60;;;;;;5115649;28;20023;-78
2023/03/23 12:31:03;;;;;;;5.50;2.78;;;16.30;54.30;;;;;;5107369;28;20036;-79
2023/03/23 12:33:48;;;;;;;5.28;3.13;;;16.40;54.50;;;;;;5115547;28;20388;-78
2023/03/23 12:36:22;;;;;;;4.95;3.00;;;16.40;54.30;;;;;;5115469;28;20026;-79
2023/03/23 12:39:21;;;;;;;3.83;2.78;;;16.50;54.60;;;;;;5116714;28;20120;-79
2023/03/23 12:42:25;;;;;;;2.70;2.42;;;16.50;54.30;;;;;;5099295;28;20059;-79
2023/03/23 12:45:03;;;;;;;5.30;3.33;;;16.50;54.30;;;;;;5096066;28;20016;-79
2023/03/23 12:47:44;;;;;;;3.42;3.00;;;16.60;54.50;;;;;;5094710;28;20056;-79
2023/03/23 12:50:22;;;;;;;3.72;2.58;;;16.70;55.10;;;;;;5094642;28;20028;-79
2023/03/23 12:52:58;;;;;;;2.92;2.40;;;16.70;54.50;;;;;;5094698;28;20021;-79
2023/03/23 12:55:36;;;;;;;3.00;2.60;;;16.80;53.90;;;;;;5094701;28;20019;-79
2023/03/23 12:58:13;;;;;;;3.60;2.70;;;16.80;54.00;;;;;;5096002;28;20028;-79